Time;durP1;ratioP1;P1;durP2;ratioP2;P2;SDS_P1;SDS_P2;PMS_P1;PMS_P2;Temp;Humidity;BMP_temperature;BMP_pressure;BME280_temperature;BME280_humidity;BME280_pressure;Samples;Min_cycle;Max_cycle;Signal;HPM_P1;HPM_P2
2023/12/02 00:02:11;;;;;;;27.43;13.63;;;-0.60;99.90;;;;;;4925626;28;20768;-64
2023/12/02 00:04:38;;;;;;;25.57;12.20;;;-0.60;99.90;;;;;;4898090;28;20222;-64
2023/12/02 00:07:05;;;;;;;27.50;12.03;;;-0.60;99.90;;;;;;4933233;28;20523;-64
2023/12/02 00:09:32;;;;;;;28.23;12.93;;;-0.50;99.90;;;;;;4940791;28;20202;-64
2023/12/02 00:11:59;;;;;;;25.53;12.03;;;-0.50;99.90;;;;;;4923488;28;20222;-64
2023/12/02 00:14:26;;;;;;;25.83;13.03;;;-0.10;99.90;;;;;;4925019;28;20211;-64
2023/12/02 00:16:53;;;;;;;24.23;12.73;;;-0.40;99.90;;;;;;4936141;28;20205;-64
2023/12/02 00:19:21;;;;;;;25.67;12.77;;;-0.50;99.90;;;;;;4901469;28;20208;-64
2023/12/02 00:21:49;;;;;;;24.47;12.03;;;-0.60;99.90;;;;;;4939196;28;20222;-65
2023/12/02 00:24:16;;;;;;;30.97;14.10;;;-0.60;99.90;;;;;;4941979;28;20273;-64
2023/12/02 00:26:43;;;;;;;26.07;12.23;;;-0.60;99.90;;;;;;4931497;28;20210;-64
2023/12/02 00:29:11;;;;;;;25.93;12.57;;;-0.40;99.90;;;;;;4927577;28;20816;-64
2023/12/02 00:31:37;;;;;;;26.57;13.37;;;0.30;99.90;;;;;;4940235;28;20981;-64
2023/12/02 00:34:04;;;;;;;24.07;12.40;;;-1.00;99.90;;;;;;4902991;28;20313;-64
2023/12/02 00:36:34;;;;;;;27.67;12.87;;;-0.50;99.90;;;;;;4943352;28;20242;-64
2023/12/02 00:39:00;;;;;;;25.10;12.53;;;-0.50;99.90;;;;;;4939359;28;20650;-64
2023/12/02 00:41:27;;;;;;;23.87;11.37;;;-0.60;99.90;;;;;;4938446;28;20218;-64
2023/12/02 00:43:54;;;;;;;23.60;12.70;;;-0.50;99.90;;;;;;4910701;28;20212;-64
2023/12/02 00:46:21;;;;;;;24.53;12.50;;;-0.60;99.90;;;;;;4939736;28;20911;-64
2023/12/02 00:48:49;;;;;;;25.80;12.03;;;-0.60;99.90;;;;;;4928061;28;20905;-64
2023/12/02 00:51:16;;;;;;;24.70;12.67;;;1.40;99.90;;;;;;4904681;28;20348;-64
2023/12/02 00:53:44;;;;;;;19.67;11.43;;;-0.50;99.90;;;;;;4937176;28;20201;-64
2023/12/02 00:56:12;;;;;;;22.77;12.13;;;-0.50;99.90;;;;;;4938127;28;20403;-64
2023/12/02 00:58:38;;;;;;;34.60;13.47;;;-0.60;99.90;;;;;;4929058;28;20204;-64
2023/12/02 01:01:06;;;;;;;24.60;12.43;;;-0.60;99.90;;;;;;4917163;28;20393;-64
2023/12/02 01:03:33;;;;;;;26.70;13.70;;;-0.60;99.90;;;;;;4934961;28;20262;-64
2023/12/02 01:06:00;;;;;;;24.73;13.63;;;-1.40;99.90;;;;;;4906609;28;20216;-64
2023/12/02 01:08:27;;;;;;;26.07;12.97;;;-0.60;99.90;;;;;;4948199;28;20213;-64
2023/12/02 01:10:55;;;;;;;28.07;14.37;;;-0.60;99.90;;;;;;4942154;28;20216;-64
2023/12/02 01:13:22;;;;;;;25.43;13.93;;;-0.50;99.90;;;;;;4943886;28;20209;-64
2023/12/02 01:15:49;;;;;;;24.57;12.17;;;-0.60;99.90;;;;;;4924458;28;20205;-64
2023/12/02 01:18:16;;;;;;;27.07;11.63;;;-0.70;99.90;;;;;;4942368;28;20999;-64
2023/12/02 01:20:44;;;;;;;23.00;12.33;;;;;;;;;;4922057;28;21068;-64
2023/12/02 01:23:10;;;;;;;24.03;11.63;;;-0.60;99.90;;;;;;4934550;28;20557;-64
2023/12/02 01:25:37;;;;;;;24.73;11.80;;;-0.60;99.90;;;;;;4944178;28;20902;-64
2023/12/02 01:28:06;;;;;;;23.37;11.40;;;-0.60;99.90;;;;;;4943092;28;21223;-64
2023/12/02 01:30:33;;;;;;;25.43;12.20;;;-0.60;99.90;;;;;;4933933;28;20214;-64
2023/12/02 01:33:00;;;;;;;27.77;12.33;;;-0.60;99.90;;;;;;4940354;28;20348;-64
2023/12/02 01:35:27;;;;;;;28.57;13.03;;;-0.60;99.90;;;;;;4936409;28;20206;-64
2023/12/02 01:37:53;;;;;;;24.40;11.73;;;-0.50;99.90;;;;;;4901610;28;20214;-64
2023/12/02 01:40:20;;;;;;;22.70;12.40;;;-0.60;99.90;;;;;;4944490;28;20212;-64
2023/12/02 01:42:47;;;;;;;24.93;11.67;;;-0.60;99.90;;;;;;4941289;28;20443;-64
2023/12/02 01:45:15;;;;;;;28.67;12.30;;;-0.60;99.90;;;;;;4930444;28;20201;-64
2023/12/02 01:47:44;;;;;;;25.77;12.13;;;-0.50;99.90;;;;;;4944405;28;20201;-64
2023/12/02 01:50:11;;;;;;;25.63;13.07;;;0.90;99.90;;;;;;4936356;28;20406;-64
2023/12/02 01:52:38;;;;;;;27.53;13.23;;;-0.60;99.90;;;;;;4907136;28;20227;-64
2023/12/02 01:55:06;;;;;;;30.37;13.60;;;-0.60;99.90;;;;;;4940072;28;20248;-64
2023/12/02 01:57:33;;;;;;;24.20;12.50;;;-0.70;99.90;;;;;;4946505;28;20677;-64
2023/12/02 02:00:00;;;;;;;25.93;11.87;;;-0.60;99.90;;;;;;4939808;28;20532;-64
2023/12/02 02:02:28;;;;;;;24.53;12.50;;;-0.50;99.90;;;;;;4932619;28;20230;-64
2023/12/02 02:04:55;;;;;;;23.10;11.83;;;-0.60;99.90;;;;;;4930427;28;20209;-64
2023/12/02 02:07:22;;;;;;;29.10;12.43;;;-0.60;99.90;;;;;;4906856;28;20885;-64
2023/12/02 02:09:49;;;;;;;26.77;11.77;;;-0.60;99.90;;;;;;4937412;28;20202;-64
2023/12/02 02:12:17;;;;;;;28.10;12.93;;;-0.20;99.90;;;;;;4937156;28;20203;-64
2023/12/02 02:14:44;;;;;;;25.90;12.47;;;-0.50;99.90;;;;;;4940374;28;20206;-65
2023/12/02 02:17:11;;;;;;;23.40;12.23;;;-1.30;99.90;;;;;;4928164;28;20206;-64
2023/12/02 02:19:39;;;;;;;25.33;12.67;;;-0.60;99.90;;;;;;4943745;28;20691;-64
2023/12/02 02:22:08;;;;;;;24.30;11.53;;;-0.50;99.90;;;;;;4898075;28;20256;-64
2023/12/02 02:24:35;;;;;;;25.67;12.60;;;0.40;99.90;;;;;;4941461;28;20689;-64
2023/12/02 02:27:02;;;;;;;28.37;12.63;;;-0.60;99.90;;;;;;4940699;28;20206;-64
2023/12/02 02:29:29;;;;;;;27.33;12.37;;;-0.60;99.90;;;;;;4944577;28;20742;-64
2023/12/02 02:31:56;;;;;;;20.47;11.83;;;-0.50;99.90;;;;;;4927444;28;20457;-65
2023/12/02 02:34:23;;;;;;;23.40;12.47;;;-0.50;99.90;;;;;;4942848;28;20884;-64
2023/12/02 02:36:50;;;;;;;24.53;12.23;;;;;;;;;;4938371;28;20241;-64
2023/12/02 02:39:19;;;;;;;24.43;12.33;;;-0.40;99.90;;;;;;4907393;28;20219;-64
2023/12/02 02:41:46;;;;;;;20.47;11.63;;;-0.50;99.90;;;;;;4942978;28;20204;-64
2023/12/02 02:44:13;;;;;;;26.87;12.33;;;-0.50;99.90;;;;;;4944537;28;20550;-64
2023/12/02 02:46:40;;;;;;;21.53;12.30;;;-0.50;99.90;;;;;;4942959;28;21181;-64
2023/12/02 02:49:07;;;;;;;25.90;13.47;;;-0.50;99.90;;;;;;4929895;28;20691;-64
2023/12/02 02:51:34;;;;;;;26.50;12.67;;;-0.50;99.90;;;;;;4942753;28;20206;-64
2023/12/02 02:54:00;;;;;;;24.40;12.17;;;-0.50;99.90;;;;;;4901948;28;22309;-64
2023/12/02 02:56:29;;;;;;;26.93;12.67;;;-0.50;99.90;;;;;;4938230;28;20254;-64
2023/12/02 02:58:56;;;;;;;23.03;11.67;;;-0.60;99.90;;;;;;4935836;28;20206;-64
2023/12/02 03:01:23;;;;;;;22.97;10.67;;;-0.50;99.90;;;;;;4931763;28;20855;-64
2023/12/02 03:03:50;;;;;;;22.73;11.40;;;-0.50;99.90;;;;;;4927475;28;20733;-64
2023/12/02 03:06:18;;;;;;;23.77;12.40;;;-0.70;99.90;;;;;;4941144;28;20212;-64
2023/12/02 03:08:45;;;;;;;22.33;11.70;;;-0.50;99.90;;;;;;4937750;28;20834;-64
2023/12/02 03:11:14;;;;;;;20.70;11.77;;;-1.00;99.90;;;;;;4908707;28;20765;-64
2023/12/02 03:13:42;;;;;;;28.87;13.43;;;-0.50;99.90;;;;;;4932839;28;20209;-64
2023/12/02 03:16:11;;;;;;;21.40;11.97;;;0.80;99.90;;;;;;4940842;28;20992;-64
2023/12/02 03:18:37;;;;;;;26.33;12.03;;;-0.60;99.90;;;;;;4932656;28;20548;-64
2023/12/02 03:21:04;;;;;;;21.93;11.03;;;-0.50;99.90;;;;;;4927346;28;20502;-64
2023/12/02 03:23:31;;;;;;;21.97;11.10;;;-0.50;99.90;;;;;;4934953;28;20709;-64
2023/12/02 03:25:58;;;;;;;24.57;11.73;;;-0.50;99.90;;;;;;4898614;28;20597;-64
2023/12/02 03:28:25;;;;;;;20.03;10.90;;;-0.60;99.90;;;;;;4942659;28;20876;-64
2023/12/02 03:30:53;;;;;;;25.13;13.20;;;-0.50;99.90;;;;;;4938989;28;20444;-64
2023/12/02 03:33:20;;;;;;;24.63;11.73;;;-0.50;99.90;;;;;;4931679;28;20685;-64
2023/12/02 03:35:47;;;;;;;25.07;12.23;;;-0.70;99.90;;;;;;4928371;28;20244;-64
2023/12/02 03:38:14;;;;;;;26.37;12.73;;;-0.50;99.90;;;;;;4934261;28;20203;-64
2023/12/02 03:40:41;;;;;;;21.43;11.03;;;;;;;;;;4926965;28;20205;-64
2023/12/02 03:43:09;;;;;;;23.23;11.47;;;-0.40;99.90;;;;;;4912550;28;20920;-64
2023/12/02 03:45:35;;;;;;;20.53;10.37;;;-0.50;99.90;;;;;;4940311;28;20204;-64
2023/12/02 03:48:04;;;;;;;21.20;11.93;;;-0.50;99.90;;;;;;4926699;28;20210;-64
2023/12/02 03:50:30;;;;;;;25.17;11.83;;;-0.40;99.90;;;;;;4940124;28;20201;-64
2023/12/02 03:52:57;;;;;;;22.17;12.60;;;-0.50;99.90;;;;;;4926319;28;20316;-65
2023/12/02 03:55:24;;;;;;;24.63;12.17;;;-0.40;99.90;;;;;;4940399;28;20211;-64
2023/12/02 03:57:51;;;;;;;23.67;11.27;;;0.40;99.90;;;;;;4903284;28;20214;-64
2023/12/02 04:00:19;;;;;;;21.37;10.33;;;-0.50;99.90;;;;;;4941353;28;20232;-64
2023/12/02 04:02:46;;;;;;;24.50;12.00;;;-0.40;99.90;;;;;;4923673;28;20654;-64
2023/12/02 04:05:14;;;;;;;20.57;10.67;;;-0.40;99.90;;;;;;4926939;28;20306;-64
2023/12/02 04:07:42;;;;;;;23.23;10.83;;;-0.40;99.90;;;;;;4914279;28;20405;-64
2023/12/02 04:10:10;;;;;;;23.97;11.73;;;-0.40;99.90;;;;;;4937036;28;20884;-64
2023/12/02 04:12:37;;;;;;;20.33;11.37;;;-0.40;99.90;;;;;;4904529;28;20854;-65
2023/12/02 04:15:06;;;;;;;22.80;11.70;;;-0.40;99.90;;;;;;4939025;28;20220;-64
2023/12/02 04:17:33;;;;;;;23.30;12.37;;;-0.60;99.90;;;;;;4938985;28;20206;-64
2023/12/02 04:20:00;;;;;;;21.10;9.97;;;;;;;;;;4928756;28;20221;-64
2023/12/02 04:22:29;;;;;;;21.27;11.60;;;-0.40;99.90;;;;;;4923188;28;20230;-64
2023/12/02 04:24:56;;;;;;;21.10;11.10;;;-2.00;99.90;;;;;;4933060;28;20214;-64
2023/12/02 04:27:23;;;;;;;21.40;11.13;;;-0.30;99.90;;;;;;4909307;28;20754;-65
2023/12/02 04:29:50;;;;;;;26.00;12.20;;;-0.40;99.90;;;;;;4941310;28;20211;-64
2023/12/02 04:32:17;;;;;;;21.77;10.70;;;-0.40;99.90;;;;;;4939400;28;20605;-64
2023/12/02 04:34:44;;;;;;;19.87;11.00;;;-0.40;99.90;;;;;;4930990;28;21208;-64
2023/12/02 04:37:12;;;;;;;20.47;10.70;;;-0.30;99.90;;;;;;4941403;28;20230;-64
2023/12/02 04:39:40;;;;;;;25.27;11.87;;;-0.50;99.90;;;;;;4919509;28;20214;-65
2023/12/02 04:42:07;;;;;;;23.13;11.47;;;-0.70;99.90;;;;;;4931357;28;20207;-64
2023/12/02 04:44:34;;;;;;;24.30;11.03;;;-0.30;99.90;;;;;;4893672;28;20287;-64
2023/12/02 04:47:01;;;;;;;18.20;10.57;;;-0.40;99.90;;;;;;4917116;28;20927;-64
2023/12/02 04:49:28;;;;;;;20.73;10.53;;;-0.30;99.90;;;;;;4918318;28;20215;-65
2023/12/02 04:51:55;;;;;;;20.13;10.20;;;-0.40;99.90;;;;;;4912172;28;20273;-64
2023/12/02 04:54:22;;;;;;;25.87;11.10;;;-0.40;99.90;;;;;;4919660;28;20204;-64
2023/12/02 04:56:50;;;;;;;20.80;9.97;;;-0.50;99.90;;;;;;4922665;28;20214;-64
2023/12/02 04:59:17;;;;;;;21.13;11.10;;;-0.40;99.90;;;;;;4893140;28;20265;-65
2023/12/02 05:01:44;;;;;;;20.67;11.33;;;-0.40;99.90;;;;;;4937435;28;20224;-64
2023/12/02 05:04:11;;;;;;;21.90;10.60;;;-0.50;99.90;;;;;;4930976;28;20247;-64
2023/12/02 05:06:38;;;;;;;29.07;16.27;;;-0.30;99.90;;;;;;4922008;28;20226;-64
2023/12/02 05:09:06;;;;;;;25.03;12.07;;;-0.30;99.90;;;;;;4940026;28;20245;-64
2023/12/02 05:11:33;;;;;;;21.23;11.07;;;-0.30;99.90;;;;;;4931890;28;20211;-64
2023/12/02 05:14:01;;;;;;;23.40;11.57;;;-0.40;99.90;;;;;;4939162;28;20310;-64
2023/12/02 05:16:28;;;;;;;20.90;10.60;;;-0.40;99.90;;;;;;4903115;28;20310;-64
2023/12/02 05:18:55;;;;;;;23.17;10.87;;;-0.30;99.90;;;;;;4941644;28;20401;-64
2023/12/02 05:21:22;;;;;;;23.27;10.87;;;-0.40;99.90;;;;;;4930664;28;20232;-64
2023/12/02 05:23:49;;;;;;;23.23;10.87;;;-0.40;99.90;;;;;;4931205;28;20847;-64
2023/12/02 05:26:16;;;;;;;24.00;10.83;;;-0.40;99.90;;;;;;4929832;28;20200;-64
2023/12/02 05:28:43;;;;;;;25.80;11.90;;;0.70;99.90;;;;;;4937248;28;20212;-64
2023/12/02 05:31:12;;;;;;;22.57;11.27;;;0.50;99.90;;;;;;4900503;28;20350;-64
2023/12/02 05:33:39;;;;;;;23.83;10.77;;;-0.40;99.90;;;;;;4935116;28;20523;-64
2023/12/02 05:36:06;;;;;;;20.43;10.03;;;-0.30;99.90;;;;;;4927161;28;20234;-65
2023/12/02 05:38:33;;;;;;;23.17;11.60;;;0.10;99.90;;;;;;4920097;28;20718;-64
2023/12/02 05:41:00;;;;;;;24.27;10.07;;;0.10;99.90;;;;;;4918102;28;20513;-64
2023/12/02 05:43:27;;;;;;;24.27;11.63;;;0.30;99.90;;;;;;4932346;28;20226;-64
2023/12/02 05:45:54;;;;;;;19.97;10.80;;;-0.40;99.90;;;;;;4891007;28;20517;-64
2023/12/02 05:48:22;;;;;;;22.20;11.37;;;-0.30;99.90;;;;;;4925098;28;20226;-64
2023/12/02 05:50:49;;;;;;;20.40;10.93;;;-0.30;99.90;;;;;;4922149;28;20334;-65
2023/12/02 05:53:16;;;;;;;20.93;10.63;;;0.20;99.90;;;;;;4922364;28;20214;-64
2023/12/02 05:55:43;;;;;;;24.10;11.87;;;-1.10;99.90;;;;;;4921376;28;20642;-64
2023/12/02 05:58:09;;;;;;;26.47;13.13;;;-0.30;99.90;;;;;;4938824;28;20583;-64
2023/12/02 06:00:36;;;;;;;21.93;11.57;;;-0.40;99.90;;;;;;4935689;28;20202;-64
2023/12/02 06:03:04;;;;;;;20.80;10.60;;;-0.40;99.90;;;;;;4905285;28;20234;-65
2023/12/02 06:05:32;;;;;;;25.63;12.20;;;-0.10;99.90;;;;;;4943134;28;20514;-64
2023/12/02 06:07:59;;;;;;;20.00;11.23;;;-0.40;99.90;;;;;;4926837;28;21191;-64
2023/12/02 06:10:25;;;;;;;23.30;12.33;;;-0.40;99.90;;;;;;4947851;28;20206;-64
2023/12/02 06:12:52;;;;;;;25.43;12.07;;;-0.40;99.90;;;;;;4928827;28;20449;-64
2023/12/02 06:15:19;;;;;;;29.67;12.53;;;0.00;99.90;;;;;;4941149;28;20203;-64
2023/12/02 06:17:47;;;;;;;25.70;12.63;;;-0.30;99.90;;;;;;4903492;28;20213;-64
2023/12/02 06:20:14;;;;;;;27.43;11.63;;;-0.30;99.90;;;;;;4943110;28;20200;-64
2023/12/02 06:22:42;;;;;;;26.97;12.60;;;-0.30;99.90;;;;;;4934087;28;20200;-64
2023/12/02 06:25:09;;;;;;;24.73;12.30;;;-0.40;99.90;;;;;;4947770;28;20225;-64
2023/12/02 06:27:36;;;;;;;23.90;11.70;;;-0.10;99.90;;;;;;4939140;28;20281;-64
2023/12/02 06:30:04;;;;;;;25.43;12.60;;;-0.40;99.90;;;;;;4936083;28;20479;-64
2023/12/02 06:32:32;;;;;;;28.20;13.10;;;-0.40;99.90;;;;;;4922802;28;20653;-65
2023/12/02 06:34:58;;;;;;;24.83;12.93;;;-0.40;99.90;;;;;;4912719;28;20551;-64
2023/12/02 06:37:25;;;;;;;25.53;12.33;;;-0.40;99.90;;;;;;4936848;28;20246;-64
2023/12/02 06:39:54;;;;;;;25.17;13.27;;;-0.30;99.90;;;;;;4935050;28;20228;-64
2023/12/02 06:42:20;;;;;;;32.00;14.70;;;-0.40;99.90;;;;;;4947403;28;20494;-64
2023/12/02 06:44:47;;;;;;;25.57;12.97;;;-0.30;99.90;;;;;;4923300;28;20239;-64
2023/12/02 06:47:14;;;;;;;22.50;11.73;;;-0.30;99.90;;;;;;4938418;28;20212;-64
2023/12/02 06:49:41;;;;;;;26.13;12.50;;;-2.00;99.90;;;;;;4897215;28;20425;-64
2023/12/02 06:52:08;;;;;;;21.80;11.77;;;-0.40;99.90;;;;;;4941115;28;20570;-64
2023/12/02 06:54:36;;;;;;;24.90;12.77;;;-0.30;99.90;;;;;;4925914;28;20208;-64
2023/12/02 06:57:05;;;;;;;22.63;11.47;;;-0.40;99.90;;;;;;4940953;28;20215;-65
2023/12/02 06:59:32;;;;;;;23.23;11.77;;;-0.30;99.90;;;;;;4938845;28;20206;-64
2023/12/02 07:01:59;;;;;;;24.83;12.73;;;-0.30;99.90;;;;;;4936550;28;20458;-64
2023/12/02 07:04:27;;;;;;;25.50;12.93;;;-0.30;99.90;;;;;;4896776;28;20240;-64
2023/12/02 07:06:54;;;;;;;32.30;12.03;;;-0.40;99.90;;;;;;4936467;28;21336;-64
2023/12/02 07:09:21;;;;;;;30.97;13.00;;;-0.40;99.90;;;;;;4929930;28;20207;-64
2023/12/02 07:11:47;;;;;;;27.60;12.60;;;-0.30;99.90;;;;;;4931273;28;20858;-64
2023/12/02 07:14:16;;;;;;;20.23;10.53;;;-0.30;99.90;;;;;;4934164;28;20231;-64
2023/12/02 07:16:43;;;;;;;19.37;11.03;;;-0.10;99.90;;;;;;4929773;28;20309;-65
2023/12/02 07:19:09;;;;;;;25.93;11.83;;;-0.40;99.90;;;;;;4945505;28;20516;-64
2023/12/02 07:21:36;;;;;;;27.97;13.17;;;-0.10;99.90;;;;;;4902406;28;20830;-64
2023/12/02 07:24:03;;;;;;;30.07;12.77;;;-0.20;99.90;;;;;;4938264;28;20276;-64
2023/12/02 07:26:30;;;;;;;30.77;12.63;;;;;;;;;;4931718;28;21793;-64
2023/12/02 07:28:57;;;;;;;27.50;13.50;;;-0.30;99.90;;;;;;4940377;28;21164;-64
2023/12/02 07:31:26;;;;;;;26.73;13.43;;;-0.20;99.90;;;;;;4930670;28;25172;-64
2023/12/02 07:33:53;;;;;;;31.67;13.83;;;-0.40;99.90;;;;;;4943076;28;20328;-65
2023/12/02 07:36:20;;;;;;;27.70;12.90;;;;;;;;;;4908273;28;20240;-64
2023/12/02 07:38:47;;;;;;;27.23;12.57;;;-1.00;99.90;;;;;;4943854;28;20216;-64
2023/12/02 07:41:13;;;;;;;24.17;12.70;;;-0.30;99.90;;;;;;4924740;28;20228;-64
2023/12/02 07:43:40;;;;;;;29.43;14.03;;;-0.60;99.90;;;;;;4936710;28;20544;-65
2023/12/02 07:46:08;;;;;;;23.03;10.40;;;-0.30;99.90;;;;;;4940287;28;20954;-64
2023/12/02 07:48:36;;;;;;;26.20;12.20;;;-0.30;99.90;;;;;;4919511;28;20946;-65
2023/12/02 07:51:04;;;;;;;24.83;11.97;;;-0.30;99.90;;;;;;4908011;28;20248;-64
2023/12/02 07:53:31;;;;;;;24.60;12.50;;;-0.30;99.90;;;;;;4944214;28;20227;-64
2023/12/02 07:55:58;;;;;;;28.43;13.03;;;-0.30;99.90;;;;;;4930851;28;20225;-64
2023/12/02 07:58:25;;;;;;;25.07;12.83;;;-0.30;99.90;;;;;;4939888;28;20272;-64
2023/12/02 08:00:52;;;;;;;27.13;12.60;;;-1.20;99.90;;;;;;4943867;28;20387;-64
2023/12/02 08:03:19;;;;;;;27.70;14.10;;;-0.20;99.90;;;;;;4906162;28;20215;-65
2023/12/02 08:05:47;;;;;;;27.47;13.63;;;-0.40;99.90;;;;;;4935373;28;20327;-65
2023/12/02 08:08:14;;;;;;;25.47;13.40;;;-0.20;99.90;;;;;;4892009;28;21108;-65
2023/12/02 08:10:41;;;;;;;26.73;13.43;;;-0.20;99.90;;;;;;4946931;28;20975;-65
2023/12/02 08:13:08;;;;;;;25.17;12.83;;;0.40;99.90;;;;;;4919262;28;20690;-65
2023/12/02 08:15:36;;;;;;;25.00;13.17;;;-0.10;99.90;;;;;;4933754;28;20728;-65
2023/12/02 08:18:03;;;;;;;22.67;12.30;;;-0.10;99.90;;;;;;4922562;28;20226;-65
2023/12/02 08:20:30;;;;;;;26.73;12.87;;;-0.10;99.90;;;;;;4941365;28;20691;-65
2023/12/02 08:22:58;;;;;;;23.60;12.53;;;0.00;99.90;;;;;;4888627;28;20260;-62
2023/12/02 08:25:25;;;;;;;26.17;12.17;;;0.00;99.90;;;;;;4939536;28;20230;-63
2023/12/02 08:27:52;;;;;;;26.20;13.77;;;0.00;99.90;;;;;;4933043;28;20216;-63
2023/12/02 08:30:19;;;;;;;24.30;11.63;;;0.30;99.90;;;;;;4930220;28;20459;-63
2023/12/02 08:32:46;;;;;;;23.37;12.60;;;0.80;99.90;;;;;;4930519;28;20336;-63
2023/12/02 08:35:13;;;;;;;25.70;13.67;;;0.00;99.90;;;;;;4941386;28;20656;-63
2023/12/02 08:37:40;;;;;;;22.60;12.23;;;0.10;99.90;;;;;;4903021;28;20681;-63
2023/12/02 08:40:09;;;;;;;23.27;12.10;;;0.10;99.90;;;;;;4923947;28;20576;-63
2023/12/02 08:42:36;;;;;;;25.00;12.57;;;-0.20;99.90;;;;;;4922707;28;20227;-63
2023/12/02 08:45:03;;;;;;;29.43;13.23;;;0.00;99.90;;;;;;4918447;28;20244;-63
2023/12/02 08:47:31;;;;;;;28.33;12.83;;;0.00;99.90;;;;;;4935842;28;20231;-63
2023/12/02 08:49:58;;;;;;;23.97;12.43;;;0.10;99.90;;;;;;4935363;28;20926;-63
2023/12/02 08:52:25;;;;;;;22.40;12.43;;;0.10;99.90;;;;;;4901444;28;20818;-63
2023/12/02 08:54:52;;;;;;;23.67;13.07;;;0.10;99.90;;;;;;4924644;28;20236;-63
2023/12/02 08:57:20;;;;;;;26.17;13.10;;;-0.70;99.90;;;;;;4930045;28;20618;-63
2023/12/02 08:59:47;;;;;;;28.47;13.70;;;0.20;99.90;;;;;;4912092;28;20237;-63
2023/12/02 09:02:14;;;;;;;28.53;12.53;;;0.20;99.90;;;;;;4912443;28;20211;-63
2023/12/02 09:04:41;;;;;;;22.20;11.50;;;0.20;99.90;;;;;;4920956;28;20229;-63
2023/12/02 09:07:08;;;;;;;28.17;12.80;;;;;;;;;;4909787;28;20225;-63
2023/12/02 09:09:35;;;;;;;26.03;13.00;;;0.20;99.90;;;;;;4918077;28;20788;-63
2023/12/02 09:12:02;;;;;;;21.80;12.37;;;0.10;99.90;;;;;;4936401;28;20317;-65
2023/12/02 09:14:30;;;;;;;23.83;12.47;;;0.20;99.90;;;;;;4917254;28;21888;-63
2023/12/02 09:16:57;;;;;;;31.43;14.13;;;0.30;99.90;;;;;;4916662;28;20230;-64
2023/12/02 09:19:54;;;;;;;18.43;10.97;;;0.60;99.90;;;;;;4928186;28;20235;-64
2023/12/02 09:22:47;;;;;;;28.23;12.93;;;1.30;99.90;;;;;;4924856;28;20221;-64
2023/12/02 09:25:28;;;;;;;23.30;12.60;;;1.20;99.90;;;;;;4927546;28;20237;-64
2023/12/02 09:28:18;;;;;;;28.10;13.27;;;1.10;99.90;;;;;;4937991;28;21258;-65
2023/12/02 09:30:57;;;;;;;26.73;13.43;;;0.70;99.90;;;;;;4922680;28;20314;-64
2023/12/02 09:33:24;;;;;;;28.30;13.00;;;0.80;99.90;;;;;;4936990;28;20688;-64
2023/12/02 09:35:57;;;;;;;20.20;12.20;;;0.70;99.90;;;;;;4926951;28;20349;-64
2023/12/02 09:38:24;;;;;;;23.03;12.10;;;1.00;99.90;;;;;;4894592;28;20453;-65
2023/12/02 09:41:13;;;;;;;25.60;12.47;;;0.70;99.90;;;;;;4925257;28;20631;-64
2023/12/02 09:43:54;;;;;;;23.03;12.20;;;0.50;99.90;;;;;;4943398;28;20206;-64
2023/12/02 09:46:28;;;;;;;24.07;12.30;;;0.60;99.90;;;;;;4913434;28;20229;-65
2023/12/02 09:49:24;;;;;;;23.20;12.07;;;0.50;99.90;;;;;;4946041;28;20210;-64
2023/12/02 09:52:03;;;;;;;23.40;12.20;;;0.50;99.90;;;;;;4915383;28;20204;-64
2023/12/02 09:54:50;;;;;;;21.40;11.23;;;0.50;99.90;;;;;;4909384;28;20213;-64
2023/12/02 09:57:25;;;;;;;21.37;11.37;;;1.20;99.90;;;;;;4932271;28;20239;-65
2023/12/02 10:00:02;;;;;;;22.73;11.03;;;0.50;99.90;;;;;;4944359;28;21278;-65
2023/12/02 10:02:44;;;;;;;21.27;11.27;;;0.50;99.90;;;;;;4923799;28;20392;-64
2023/12/02 10:05:12;;;;;;;18.80;11.37;;;0.70;99.90;;;;;;4927802;28;20243;-64
2023/12/02 10:07:59;;;;;;;23.20;12.17;;;0.60;99.90;;;;;;4945912;28;20202;-64
2023/12/02 10:10:27;;;;;;;23.37;11.70;;;0.40;99.90;;;;;;4897155;28;20310;-64
2023/12/02 10:13:07;;;;;;;23.73;12.50;;;0.50;99.90;;;;;;4948877;28;20202;-64
2023/12/02 10:15:40;;;;;;;24.37;11.80;;;0.50;99.90;;;;;;4948470;28;20654;-64
2023/12/02 10:18:13;;;;;;;19.87;10.63;;;0.50;99.90;;;;;;4922537;28;20215;-64
2023/12/02 10:20:41;;;;;;;23.17;11.43;;;1.10;99.90;;;;;;4949255;28;20240;-64
2023/12/02 10:23:17;;;;;;;23.80;12.30;;;0.50;99.90;;;;;;4935380;28;20217;-64
2023/12/02 10:26:05;;;;;;;22.30;11.57;;;0.50;99.90;;;;;;4900199;28;20225;-65
2023/12/02 10:28:44;;;;;;;19.97;11.33;;;0.40;99.90;;;;;;4943253;28;22890;-64
2023/12/02 10:31:22;;;;;;;20.10;11.27;;;0.50;99.90;;;;;;4933983;28;20228;-65
2023/12/02 10:33:57;;;;;;;25.27;11.30;;;0.60;99.90;;;;;;4937233;28;20296;-64
2023/12/02 10:36:28;;;;;;;23.33;12.37;;;0.50;99.90;;;;;;4945429;28;20319;-64
2023/12/02 10:39:03;;;;;;;25.00;12.97;;;1.20;99.90;;;;;;4940551;28;20222;-65
2023/12/02 10:41:39;;;;;;;24.70;12.67;;;0.50;99.90;;;;;;4897041;28;20222;-65
2023/12/02 10:44:08;;;;;;;22.47;12.03;;;0.50;99.90;;;;;;4945540;28;20208;-65
2023/12/02 10:46:38;;;;;;;24.27;12.17;;;0.00;99.90;;;;;;4934999;28;21256;-65
2023/12/02 10:49:06;;;;;;;21.90;12.17;;;0.90;99.90;;;;;;4931751;28;20237;-64
2023/12/02 10:51:40;;;;;;;19.30;11.80;;;2.00;99.90;;;;;;4947788;28;21078;-64
2023/12/02 10:54:09;;;;;;;23.63;11.63;;;1.00;99.90;;;;;;4936844;28;20216;-64
2023/12/02 10:56:39;;;;;;;21.03;11.90;;;0.50;99.90;;;;;;4912493;28;20221;-65
2023/12/02 10:59:07;;;;;;;28.33;13.27;;;0.40;99.90;;;;;;4936997;28;20210;-64
2023/12/02 11:01:39;;;;;;;26.30;12.57;;;0.40;99.90;;;;;;4943555;28;20206;-65
2023/12/02 11:04:15;;;;;;;22.27;11.40;;;0.40;99.90;;;;;;4922121;28;20204;-64
2023/12/02 11:06:50;;;;;;;18.73;10.87;;;0.40;99.90;;;;;;4938523;28;20232;-64
2023/12/02 11:09:22;;;;;;;30.07;13.47;;;0.50;99.90;;;;;;4928141;28;20252;-65
2023/12/02 11:12:02;;;;;;;22.17;12.60;;;0.80;99.90;;;;;;4906328;28;21098;-65
2023/12/02 11:14:36;;;;;;;25.07;12.73;;;0.20;99.90;;;;;;4935180;28;20202;-64
2023/12/02 11:17:10;;;;;;;26.70;12.93;;;0.60;99.90;;;;;;4946532;28;20208;-65
2023/12/02 11:20:05;;;;;;;27.00;11.97;;;0.60;99.90;;;;;;4919716;28;21134;-65
2023/12/02 11:23:07;;;;;;;22.47;12.73;;;0.60;99.90;;;;;;4939747;28;20206;-65
2023/12/02 11:25:46;;;;;;;20.90;12.13;;;0.90;99.90;;;;;;4908243;28;20232;-65
2023/12/02 11:28:23;;;;;;;25.23;11.83;;;0.60;99.90;;;;;;4896715;28;20200;-64
2023/12/02 11:31:06;;;;;;;23.00;12.33;;;0.60;99.90;;;;;;4936772;28;20766;-64
2023/12/02 11:33:48;;;;;;;21.43;11.60;;;0.80;99.90;;;;;;4918860;28;20205;-64
2023/12/02 11:36:22;;;;;;;23.50;11.60;;;0.70;99.90;;;;;;4922990;28;20233;-65
2023/12/02 11:39:03;;;;;;;24.53;13.23;;;0.80;99.90;;;;;;4940070;28;20223;-65
2023/12/02 11:41:43;;;;;;;24.57;12.97;;;0.70;99.90;;;;;;4903887;28;20203;-65
2023/12/02 11:44:22;;;;;;;23.20;12.70;;;0.70;99.90;;;;;;4929299;28;20741;-64
2023/12/02 11:47:04;;;;;;;21.47;12.43;;;0.70;99.90;;;;;;4922810;28;20396;-64
2023/12/02 11:49:47;;;;;;;26.33;13.87;;;0.90;99.90;;;;;;4907084;28;20434;-65
2023/12/02 11:52:25;;;;;;;24.93;12.00;;;0.90;99.90;;;;;;4921902;28;20222;-65
2023/12/02 11:55:07;;;;;;;23.77;12.47;;;0.90;99.90;;;;;;4914878;28;20229;-65
2023/12/02 11:57:47;;;;;;;21.80;11.97;;;0.90;99.90;;;;;;4884013;28;20213;-65
2023/12/02 12:00:20;;;;;;;23.47;12.07;;;1.00;99.90;;;;;;4929377;28;20234;-65
2023/12/02 12:03:16;;;;;;;29.83;13.43;;;1.20;99.90;;;;;;4936627;28;20226;-65
2023/12/02 12:05:51;;;;;;;23.47;12.73;;;1.00;99.90;;;;;;4908335;28;20323;-64
2023/12/02 12:08:21;;;;;;;25.20;13.13;;;1.00;99.90;;;;;;4925461;28;20225;-65
2023/12/02 12:10:49;;;;;;;27.43;13.57;;;0.90;99.90;;;;;;4914940;28;20215;-65
2023/12/02 12:13:21;;;;;;;21.70;11.87;;;1.00;99.90;;;;;;4890128;28;20719;-65
2023/12/02 12:15:48;;;;;;;21.23;11.80;;;0.90;99.90;;;;;;4924337;28;20219;-65
2023/12/02 12:18:17;;;;;;;23.90;11.93;;;0.90;99.90;;;;;;4934558;28;20205;-65
2023/12/02 12:20:44;;;;;;;21.10;12.23;;;1.00;99.90;;;;;;4929205;28;20208;-65
2023/12/02 12:23:12;;;;;;;22.47;11.60;;;0.90;99.90;;;;;;4924929;28;20529;-65
2023/12/02 12:25:42;;;;;;;28.10;13.33;;;1.00;99.90;;;;;;4932628;28;20229;-64
2023/12/02 12:28:09;;;;;;;22.33;10.67;;;;;;;;;;4926508;28;20222;-64
2023/12/02 12:30:44;;;;;;;23.30;11.70;;;1.00;99.90;;;;;;4886184;28;20251;-64
2023/12/02 12:33:13;;;;;;;19.90;11.53;;;0.40;99.90;;;;;;4931840;28;20220;-64
2023/12/02 12:35:40;;;;;;;20.37;11.47;;;0.90;99.90;;;;;;4930156;28;20235;-64
2023/12/02 12:38:09;;;;;;;21.93;11.67;;;1.00;99.90;;;;;;4921977;28;20615;-64
2023/12/02 12:40:36;;;;;;;22.37;10.47;;;0.90;99.90;;;;;;4941462;28;20272;-64
2023/12/02 12:43:07;;;;;;;16.33;9.20;;;0.30;99.90;;;;;;4896905;28;20226;-64
2023/12/02 12:45:34;;;;;;;22.50;10.10;;;0.90;99.90;;;;;;4877799;28;20703;-64